Time;durP1;ratioP1;P1;durP2;ratioP2;P2;SDS_P1;SDS_P2;PMS_P1;PMS_P2;Temp;Humidity;BMP_temperature;BMP_pressure;BME280_temperature;BME280_humidity;BME280_pressure;Samples;Min_cycle;Max_cycle;Signal;HPM_P1;HPM_P2
2022/05/29 00:01:12;;;;;;;4.60;2.00;;;;;;;11.61;61.18;101742.44;5067464;28;20039;-90
2022/05/29 00:03:37;;;;;;;5.25;2.10;;;;;;;11.59;61.14;101729.25;5067886;28;20043;-91
2022/05/29 00:06:05;;;;;;;8.82;2.42;;;;;;;11.55;61.17;101737.34;5065927;28;20565;-90
2022/05/29 00:08:33;;;;;;;3.58;1.77;;;;;;;11.46;61.80;101734.03;5086616;28;20028;-90
2022/05/29 00:11:00;;;;;;;15.63;3.10;;;;;;;11.43;61.33;101734.16;5084103;28;20020;-90
2022/05/29 00:13:27;;;;;;;3.95;2.20;;;;;;;11.38;61.74;101729.91;5087402;28;20422;-90
2022/05/29 00:15:53;;;;;;;4.35;2.63;;;;;;;11.29;62.14;101722.25;5065387;28;20024;-90
2022/05/29 00:18:19;;;;;;;3.88;2.17;;;;;;;11.29;62.05;101725.75;5069171;28;20066;-89
2022/05/29 00:20:54;;;;;;;7.05;2.35;;;;;;;11.23;61.91;101720.63;5080019;28;20040;-90
2022/05/29 00:23:20;;;;;;;5.30;2.20;;;;;;;11.12;62.90;101709.47;5067960;28;20034;-90
2022/05/29 00:25:49;;;;;;;5.07;2.25;;;;;;;11.12;62.51;101714.78;5077710;28;20457;-89
2022/05/29 00:28:14;;;;;;;5.53;2.53;;;;;;;11.10;62.58;101712.19;5084205;28;20031;-89
2022/05/29 00:30:40;;;;;;;6.32;2.20;;;;;;;11.11;62.80;101716.56;5086117;28;20028;-89
2022/05/29 00:33:06;;;;;;;4.93;1.90;;;;;;;11.00;62.75;101708.03;5080900;28;20031;-90
2022/05/29 00:35:32;;;;;;;4.50;2.20;;;;;;;11.01;62.91;101704.50;5078005;28;20240;-90
2022/05/29 00:37:57;;;;;;;6.38;2.58;;;;;;;10.99;63.07;101708.94;5085245;28;20035;-90
2022/05/29 00:40:54;;;;;;;5.40;2.75;;;;;;;10.98;62.69;101708.09;5061051;28;20024;-89
2022/05/29 00:43:19;;;;;;;6.50;2.40;;;;;;;10.91;63.30;101698.59;5084542;28;20039;-89
2022/05/29 00:45:49;;;;;;;4.93;2.78;;;;;;;10.99;63.28;101701.00;5063740;28;20020;-91
2022/05/29 00:48:17;;;;;;;9.57;2.90;;;;;;;10.94;63.57;101702.91;5081897;28;20119;-89
2022/05/29 00:50:44;;;;;;;5.85;2.50;;;;;;;10.95;63.87;101694.94;5072993;28;20035;-90
2022/05/29 00:53:10;;;;;;;7.82;2.17;;;;;;;11.01;63.69;101698.34;5085415;28;20089;-89
2022/05/29 00:55:36;;;;;;;6.13;2.33;;;;;;;11.04;64.09;101688.50;5079791;28;20027;-90
2022/05/29 00:58:03;;;;;;;5.55;2.17;;;;;;;10.98;63.90;101694.00;5060857;28;20101;-89
2022/05/29 01:00:31;;;;;;;7.07;2.10;;;;;;;10.95;64.08;101689.63;5061324;28;20123;-90
2022/05/29 01:03:00;;;;;;;5.32;2.22;;;;;;;10.99;64.19;101686.00;5079295;28;20035;-90
2022/05/29 01:05:28;;;;;;;10.27;2.42;;;;;;;11.05;64.03;101684.09;5059471;28;20559;-88
2022/05/29 01:08:05;;;;;;;7.68;2.40;;;;;;;11.17;63.26;101687.25;5063415;28;20031;-89
2022/05/29 01:11:03;;;;;;;4.55;2.13;;;;;;;11.27;62.60;101676.41;5065112;28;20032;-89
2022/05/29 01:13:52;;;;;;;7.93;2.38;;;;;;;11.32;63.76;101678.00;5066266;28;20939;-90
2022/05/29 01:16:21;;;;;;;5.68;1.98;;;;;;;11.36;63.45;101674.34;5062090;28;20035;-89
2022/05/29 01:19:44;;;;;;;7.60;2.60;;;;;;;11.47;62.17;101676.66;5060870;28;20044;-91
2022/05/29 01:22:17;;;;;;;7.63;2.13;;;;;;;11.33;64.42;101671.81;5003744;28;20034;-89
2022/05/29 01:25:35;;;;;;;9.50;2.40;;;;;;;11.37;62.95;101669.91;5009802;28;20033;-88
2022/05/29 01:28:12;;;;;;;6.90;2.30;;;;;;;11.34;63.71;101664.72;5080682;28;20503;-90
2022/05/29 01:31:03;;;;;;;7.43;2.47;;;;;;;11.31;63.80;101667.47;5086434;28;20475;-89
2022/05/29 01:33:39;;;;;;;5.72;2.03;;;;;;;11.32;63.52;101650.66;5081715;28;20024;-90
2022/05/29 01:36:30;;;;;;;4.57;2.28;;;;;;;11.40;62.55;101652.16;5081580;28;20115;-90
2022/05/29 01:39:00;;;;;;;5.18;2.22;;;;;;;11.24;63.69;101641.19;5086819;28;20032;-89
2022/05/29 01:41:48;;;;;;;4.70;2.20;;;;;;;11.42;63.08;101657.41;5068643;28;20056;-89
2022/05/29 01:44:22;;;;;;;7.80;2.30;;;;;;;11.38;64.00;101650.50;5079314;28;20040;-90
2022/05/29 01:46:54;;;;;;;7.25;2.45;;;;;;;11.34;64.37;101655.00;5065267;28;20050;-89
2022/05/29 01:49:33;;;;;;;6.53;2.38;;;;;;;11.38;63.97;101658.44;5072818;28;20044;-90
2022/05/29 01:52:02;;;;;;;6.47;2.17;;;;;;;11.37;63.78;101652.25;5065650;28;20561;-91
2022/05/29 01:54:52;;;;;;;5.88;2.20;;;;;;;11.37;62.97;101649.59;5068025;28;20020;-90
2022/05/29 01:57:23;;;;;;;8.57;2.65;;;;;;;11.09;65.15;101641.63;5067252;28;20093;-91
2022/05/29 01:59:56;;;;;;;4.75;2.30;;;;;;;11.03;65.30;101646.22;5072009;28;20028;-90
2022/05/29 02:02:29;;;;;;;7.32;3.17;;;;;;;11.10;65.10;101631.94;5083687;28;20035;-88
2022/05/29 02:05:00;;;;;;;5.00;2.10;;;;;;;11.16;64.37;101637.03;5085463;28;20061;-90
2022/05/29 02:10:26;;;;;;;5.43;2.38;;;;;;;11.10;65.67;101643.38;5087309;28;20181;-89
2022/05/29 02:13:02;;;;;;;3.70;2.50;;;;;;;11.11;64.81;101629.22;5066900;28;20112;-90
2022/05/29 02:15:43;;;;;;;6.95;2.80;;;;;;;11.12;64.42;101644.19;5070923;28;20032;-89
2022/05/29 02:18:16;;;;;;;6.38;2.80;;;;;;;11.03;65.70;101636.50;5084163;28;20070;-90
2022/05/29 02:20:46;;;;;;;7.78;2.88;;;;;;;11.10;65.24;101637.22;5069908;28;20020;-90
2022/05/29 02:23:21;;;;;;;6.55;2.90;;;;;;;11.14;65.17;101630.91;5092939;28;20028;-89
2022/05/29 02:25:47;;;;;;;8.65;2.65;;;;;;;11.12;64.51;101625.66;5089302;28;20028;-89
2022/05/29 02:28:21;;;;;;;8.45;3.10;;;;;;;11.10;64.97;101624.84;5069432;28;20023;-90
2022/05/29 02:31:27;;;;;;;9.50;2.85;;;;;;;11.15;64.31;101622.94;5085926;28;20036;-90
2022/05/29 02:34:18;;;;;;;8.15;3.20;;;;;;;10.96;65.17;101622.59;5070578;28;20122;-89
2022/05/29 02:36:50;;;;;;;8.00;2.80;;;;;;;10.98;65.65;101622.56;5094293;28;20095;-90
2022/05/29 02:39:42;;;;;;;6.87;3.57;;;;;;;11.03;64.69;101622.41;5070369;28;20039;-89
2022/05/29 02:42:17;;;;;;;9.90;2.70;;;;;;;10.93;65.30;101612.09;5066105;28;20032;-89
2022/05/29 02:44:56;;;;;;;5.93;2.67;;;;;;;10.94;65.54;101607.69;5083136;28;20036;-89
2022/05/29 02:47:39;;;;;;;5.97;2.80;;;;;;;10.93;65.30;101611.25;5085395;28;20435;-90
2022/05/29 02:50:17;;;;;;;7.03;2.47;;;;;;;10.93;65.31;101600.66;5086694;28;20589;-89
2022/05/29 02:52:43;;;;;;;8.38;3.17;;;;;;;10.91;65.78;101607.75;5081086;28;20044;-90
2022/05/29 02:55:08;;;;;;;5.47;2.35;;;;;;;10.94;65.52;101600.59;5079403;28;20016;-90
2022/05/29 02:57:34;;;;;;;9.63;2.67;;;;;;;10.89;65.79;101599.00;5065717;28;20255;-89
2022/05/29 03:00:11;;;;;;;5.45;2.20;;;;;;;10.85;65.82;101603.50;5086362;28;20052;-88
2022/05/29 03:02:43;;;;;;;6.10;2.30;;;;;;;10.87;65.74;101606.13;5087365;28;20474;-90
2022/05/29 03:05:31;;;;;;;6.88;2.58;;;;;;;10.89;64.95;101602.53;5085930;28;20112;-88
2022/05/29 03:08:14;;;;;;;6.28;2.67;;;;;;;10.89;65.35;101604.31;5068526;28;20165;-89
2022/05/29 03:10:50;;;;;;;4.85;2.38;;;;;;;10.88;66.14;101592.00;5068917;28;20031;-89
2022/05/29 03:13:34;;;;;;;5.93;2.80;;;;;;;10.91;66.25;101599.81;5070977;28;20032;-89
2022/05/29 03:16:04;;;;;;;7.80;2.55;;;;;;;10.93;65.51;101596.22;5065996;28;20047;-89
2022/05/29 03:18:29;;;;;;;7.32;2.50;;;;;;;10.89;66.35;101599.88;5065166;28;20316;-90
2022/05/29 03:21:02;;;;;;;7.07;2.80;;;;;;;10.88;65.66;101590.22;5068665;28;20525;-90
2022/05/29 03:23:44;;;;;;;7.82;2.50;;;;;;;10.88;65.12;101600.78;5067158;28;20024;-90
2022/05/29 03:26:26;;;;;;;7.22;2.88;;;;;;;10.87;65.57;101595.56;5065655;28;20024;-90
2022/05/29 03:29:04;;;;;;;;;;;;;;;10.98;64.15;101596.97;5070010;28;20575;-90
2022/05/29 03:31:30;;;;;;;7.55;2.72;;;;;;;10.95;65.82;101596.19;5081903;28;19912;-89
2022/05/29 03:33:57;;;;;;;9.82;2.70;;;;;;;10.88;66.08;101587.56;5068413;28;20039;-89
2022/05/29 03:36:25;;;;;;;8.25;2.90;;;;;;;10.91;66.52;101594.53;5070042;28;20028;-89
2022/05/29 03:38:51;;;;;;;5.85;2.50;;;;;;;10.95;65.98;101591.75;5088023;28;20077;-90
2022/05/29 03:41:47;;;;;;;4.85;2.20;;;;;;;11.04;65.23;101582.66;5069635;28;20032;-90
2022/05/29 03:44:14;;;;;;;6.55;3.20;;;;;;;10.98;65.82;101580.22;5075413;28;20067;-90
2022/05/29 03:46:40;;;;;;;6.63;2.38;;;;;;;11.04;65.91;101577.38;5086237;28;20024;-89
2022/05/29 03:49:09;;;;;;;7.70;2.60;;;;;;;11.08;66.01;101573.72;5087115;28;20054;-90
2022/05/29 03:51:36;;;;;;;11.43;2.40;;;;;;;11.04;65.47;101577.38;5066788;28;21257;-91
2022/05/29 03:54:03;;;;;;;6.63;2.45;;;;;;;11.03;65.66;101575.66;5069381;28;20471;-90
2022/05/29 03:56:29;;;;;;;9.30;2.38;;;;;;;11.01;65.40;101566.03;5087112;28;20386;-90
2022/05/29 03:58:54;;;;;;;5.60;2.90;;;;;;;10.98;65.96;101578.44;5074639;28;20115;-90
2022/05/29 04:01:20;;;;;;;7.15;2.22;;;;;;;10.95;65.54;101564.44;5065569;28;20028;-90
2022/05/29 04:03:45;;;;;;;11.93;2.60;;;;;;;10.96;65.52;101566.19;5065147;28;20491;-90
2022/05/29 04:06:11;;;;;;;7.32;2.28;;;;;;;10.97;65.51;101573.19;5064054;28;20059;-90
2022/05/29 04:14:06;;;;;;;8.52;2.30;;;;;;;11.05;66.06;101571.19;5086666;28;20054;-90
2022/05/29 04:16:32;;;;;;;7.75;2.58;;;;;;;11.03;66.12;101557.13;5065401;28;20024;-90
2022/05/29 04:18:57;;;;;;;10.88;2.67;;;;;;;11.09;66.23;101569.31;5070883;28;20498;-89
2022/05/29 04:21:22;;;;;;;8.40;2.67;;;;;;;11.07;65.97;101564.06;5067360;28;20107;-90
2022/05/29 04:23:47;;;;;;;7.50;2.60;;;;;;;11.08;66.10;101557.00;5072520;28;20035;-90
2022/05/29 04:26:14;;;;;;;9.18;2.78;;;;;;;11.15;65.89;101562.06;5071268;28;20032;-89
2022/05/29 04:28:40;;;;;;;16.23;3.55;;;;;;;11.16;66.07;101561.13;5080057;28;20028;-89
2022/05/29 04:31:05;;;;;;;8.98;2.60;;;;;;;11.14;65.52;101560.28;5083641;28;20410;-90
2022/05/29 04:33:30;;;;;;;10.15;2.92;;;;;;;11.21;66.03;101561.84;5066384;28;20127;-89
2022/05/29 04:35:56;;;;;;;8.63;2.40;;;;;;;11.20;66.84;101570.72;5062319;28;20028;-90
2022/05/29 04:38:23;;;;;;;6.53;2.20;;;;;;;11.21;66.46;101571.59;5082587;28;20081;-89
2022/05/29 04:40:48;;;;;;;5.63;2.35;;;;;;;11.15;66.90;101579.72;5065944;28;20048;-88
2022/05/29 04:43:15;;;;;;;5.05;2.40;;;;;;;11.13;68.42;101589.47;5065748;28;20062;-88
2022/05/29 04:45:43;;;;;;;7.60;2.90;;;;;;;11.01;68.98;101587.22;5065646;28;20122;-88
2022/05/29 04:48:14;;;;;;;8.48;2.80;;;;;;;11.02;68.95;101586.28;5082430;28;21297;-87
2022/05/29 04:50:40;;;;;;;5.80;2.83;;;;;;;10.99;70.20;101596.03;5083436;28;20572;-87
2022/05/29 04:53:06;;;;;;;5.43;2.70;;;;;;;10.98;70.06;101582.88;5072529;28;20123;-88
2022/05/29 04:55:32;;;;;;;6.30;2.67;;;;;;;10.99;69.69;101574.88;5086392;28;20289;-88
2022/05/29 04:57:57;;;;;;;6.22;2.70;;;;;;;11.01;69.75;101574.84;5069038;28;20016;-88
2022/05/29 05:00:23;;;;;;;9.15;3.13;;;;;;;11.01;70.77;101564.25;5066590;28;20054;-88
2022/05/29 05:02:48;;;;;;;10.10;2.83;;;;;;;11.02;70.47;101563.34;5084828;28;20534;-88
2022/05/29 05:05:15;;;;;;;9.00;2.70;;;;;;;11.10;70.71;101565.75;5062805;28;20032;-87
2022/05/29 05:07:41;;;;;;;8.52;2.83;;;;;;;11.06;71.29;101543.81;5059102;28;20035;-88
2022/05/29 05:10:12;;;;;;;7.90;2.75;;;;;;;11.09;70.39;101564.88;5067486;28;20024;-87
2022/05/29 05:12:39;;;;;;;8.52;2.92;;;;;;;11.07;72.04;101561.41;5068657;28;20433;-87
2022/05/29 05:15:05;;;;;;;9.13;3.00;;;;;;;11.11;70.21;101556.91;5082709;28;20064;-87
2022/05/29 05:17:31;;;;;;;10.68;3.50;;;;;;;11.15;70.21;101555.91;5084057;28;20059;-88
2022/05/29 05:19:56;;;;;;;6.97;2.70;;;;;;;11.20;70.85;101557.47;5068290;28;20532;-87
2022/05/29 05:22:21;;;;;;;10.02;2.88;;;;;;;11.20;70.21;101546.91;5075751;28;20103;-88
2022/05/29 05:24:48;;;;;;;10.73;3.45;;;;;;;11.28;70.25;101559.00;5084661;28;20588;-86
2022/05/29 05:27:14;;;;;;;8.88;2.85;;;;;;;11.30;70.26;101560.69;5062071;28;20032;-88
2022/05/29 05:29:39;;;;;;;8.70;3.00;;;;;;;11.33;71.22;101546.50;5079044;28;20494;-87
2022/05/29 05:32:05;;;;;;;6.65;2.88;;;;;;;11.33;70.71;101549.13;5064720;28;20097;-87
2022/05/29 05:34:31;;;;;;;5.15;3.05;;;;;;;11.27;70.28;101544.91;5065667;28;20028;-87
2022/05/29 05:36:56;;;;;;;4.93;3.38;;;;;;;11.16;70.77;101537.31;5062268;28;20120;-87
2022/05/29 05:39:22;;;;;;;10.57;3.13;;;;;;;11.22;71.16;101542.41;5081977;28;20564;-87
2022/05/29 05:41:48;;;;;;;6.13;3.25;;;;;;;11.33;71.79;101559.72;5067441;28;20024;-87
2022/05/29 05:44:13;;;;;;;6.20;3.08;;;;;;;11.39;71.22;101551.59;5086802;28;20065;-87
2022/05/29 05:46:52;;;;;;;9.13;3.80;;;;;;;11.44;71.32;101542.59;5078761;28;20495;-87
2022/05/29 05:49:19;;;;;;;6.53;2.95;;;;;;;11.47;71.12;101552.19;5079365;28;20078;-87
2022/05/29 05:51:45;;;;;;;5.40;3.47;;;;;;;11.50;71.19;101549.47;5091466;28;20035;-87
2022/05/29 05:54:12;;;;;;;9.35;3.60;;;;;;;11.54;71.76;101548.47;5081429;28;20032;-87
2022/05/29 05:56:47;;;;;;;9.02;4.03;;;;;;;11.63;71.06;101552.59;5069679;28;20453;-87
2022/05/29 05:59:13;;;;;;;6.68;3.70;;;;;;;11.61;71.69;101547.34;5083163;28;20043;-87
2022/05/29 06:01:39;;;;;;;7.70;3.65;;;;;;;11.59;71.69;101541.22;5065178;28;20028;-87
2022/05/29 06:04:04;;;;;;;6.78;3.65;;;;;;;11.65;72.37;101553.38;5068708;28;20067;-88
2022/05/29 06:06:30;;;;;;;8.20;3.75;;;;;;;11.58;70.65;101551.88;5063746;28;20113;-88
2022/05/29 06:08:56;;;;;;;8.85;3.45;;;;;;;11.65;72.46;101554.25;5060730;28;20032;-88
2022/05/29 06:11:23;;;;;;;7.78;3.10;;;;;;;11.67;71.65;101546.28;5083836;28;20541;-87
2022/05/29 06:13:49;;;;;;;4.85;2.80;;;;;;;11.84;70.42;101554.53;5082491;28;20035;-88
2022/05/29 06:16:14;;;;;;;7.00;2.90;;;;;;;11.83;71.16;101541.34;5065413;28;20031;-88
2022/05/29 06:18:40;;;;;;;9.73;3.30;;;;;;;11.90;71.17;101554.34;5061240;28;20024;-87
2022/05/29 06:21:05;;;;;;;5.00;3.10;;;;;;;11.87;69.96;101546.50;5067746;28;20066;-88
2022/05/29 06:23:35;;;;;;;7.68;3.50;;;;;;;11.86;70.35;101546.56;5084894;28;20032;-88
2022/05/29 06:26:05;;;;;;;8.82;3.30;;;;;;;11.93;70.25;101550.72;5062162;28;21290;-88
2022/05/29 06:28:31;;;;;;;5.75;3.30;;;;;;;11.95;70.71;101546.22;5062550;28;20020;-88
2022/05/29 06:30:57;;;;;;;7.75;3.70;;;;;;;12.08;69.77;101550.19;5061464;28;20424;-88
2022/05/29 06:33:23;;;;;;;6.38;3.30;;;;;;;12.22;69.70;101545.28;5083254;28;20025;-88
2022/05/29 06:35:49;;;;;;;7.63;3.42;;;;;;;12.42;68.65;101535.72;5065479;28;20509;-88
2022/05/29 06:38:14;;;;;;;7.95;3.60;;;;;;;12.65;69.09;101549.00;5084011;28;20039;-88
2022/05/29 06:40:47;;;;;;;9.98;3.35;;;;;;;12.82;68.79;101539.53;5086159;28;20039;-87
2022/05/29 06:43:12;;;;;;;8.70;3.22;;;;;;;13.02;68.35;101544.94;5070912;28;20493;-88
2022/05/29 06:45:37;;;;;;;7.32;3.60;;;;;;;13.16;68.58;101549.72;5084425;28;20027;-88
2022/05/29 06:48:03;;;;;;;5.65;3.00;;;;;;;13.19;67.75;101545.13;5086004;28;20375;-88
2022/05/29 06:50:29;;;;;;;6.15;3.17;;;;;;;13.24;67.65;101548.53;5070926;28;20039;-88
2022/05/29 06:52:54;;;;;;;9.02;3.13;;;;;;;13.09;67.92;101543.75;5073089;28;20031;-88
2022/05/29 06:55:21;;;;;;;4.90;2.70;;;;;;;13.15;67.18;101550.63;5061565;28;20028;-88
2022/05/29 06:57:48;;;;;;;7.45;3.03;;;;;;;13.25;66.88;101542.28;5065884;28;20155;-88
2022/05/29 07:08:31;;;;;;;5.68;3.17;;;;;;;13.31;67.77;101538.50;5081479;28;20085;-89
2022/05/29 07:11:02;;;;;;;7.00;3.50;;;;;;;13.35;67.65;101552.53;5070646;28;20536;-89
2022/05/29 07:13:29;;;;;;;10.70;3.50;;;;;;;13.28;66.33;101535.97;5082193;28;20501;-88
2022/05/29 07:15:54;;;;;;;8.07;3.15;;;;;;;13.31;66.12;101540.28;5062024;28;20035;-89
2022/05/29 07:18:20;;;;;;;7.72;2.55;;;;;;;13.21;66.72;101543.28;5075661;28;20111;-89
2022/05/29 07:20:45;;;;;;;5.10;2.80;;;;;;;13.05;66.55;101525.34;5084264;28;20028;-89
2022/05/29 07:23:14;;;;;;;4.63;2.80;;;;;;;13.12;67.16;101538.34;5087103;28;20262;-88
2022/05/29 07:25:40;;;;;;;9.43;2.90;;;;;;;13.28;66.47;101539.47;5086893;28;20056;-89
2022/05/29 07:28:05;;;;;;;6.05;3.08;;;;;;;13.41;66.72;101539.00;5086242;28;20123;-89
2022/05/29 07:30:31;;;;;;;5.68;2.90;;;;;;;13.66;66.35;101534.41;5066267;28;20053;-88
2022/05/29 07:32:59;;;;;;;8.40;3.22;;;;;;;13.85;66.28;101538.91;5071131;28;20107;-89
2022/05/29 07:35:24;;;;;;;10.50;3.38;;;;;;;14.05;66.00;101536.28;5066496;28;20220;-88
2022/05/29 07:37:49;;;;;;;11.35;2.90;;;;;;;14.10;64.57;101530.78;5065709;28;20024;-89
2022/05/29 07:40:15;;;;;;;6.30;3.03;;;;;;;14.07;63.75;101539.72;5083840;28;20122;-88
2022/05/29 07:45:24;;;;;;;7.93;2.58;;;;;;;14.14;63.49;101530.56;5084867;28;20031;-88
2022/05/29 07:47:49;;;;;;;4.22;2.20;;;;;;;14.01;63.75;101530.22;5085071;28;20020;-89
2022/05/29 07:50:17;;;;;;;5.55;2.50;;;;;;;13.92;65.53;101535.09;5070308;28;20036;-89
2022/05/29 07:52:44;;;;;;;5.72;2.35;;;;;;;13.95;64.65;101529.66;5086154;28;20035;-89
2022/05/29 07:55:09;;;;;;;9.85;2.88;;;;;;;13.90;63.83;101523.66;5081449;28;20070;-89
2022/05/29 07:57:34;;;;;;;4.90;2.58;;;;;;;13.86;63.77;101527.38;5086381;28;20028;-89
2022/05/29 08:00:00;;;;;;;8.05;2.30;;;;;;;13.89;63.47;101525.44;5064888;28;20510;-88
2022/05/29 08:02:25;;;;;;;5.97;1.98;;;;;;;13.90;63.52;101515.69;5065030;28;20016;-89
2022/05/29 08:04:51;;;;;;;7.47;2.28;;;;;;;14.00;63.01;101527.66;5085987;28;20414;-88
2022/05/29 08:07:17;;;;;;;7.28;2.50;;;;;;;14.18;62.72;101520.66;5068690;28;20067;-88
2022/05/29 08:09:43;;;;;;;4.30;2.42;;;;;;;14.42;61.02;101516.03;5066660;28;20115;-88
2022/05/29 08:12:08;;;;;;;5.38;2.25;;;;;;;15.19;59.87;101519.50;5067323;28;20541;-88
2022/05/29 08:14:34;;;;;;;6.55;2.22;;;;;;;15.61;58.58;101514.78;5087725;28;20069;-88
2022/05/29 08:16:59;;;;;;;4.57;1.95;;;;;;;15.82;57.88;101517.28;5082661;28;20391;-89
2022/05/29 08:19:25;;;;;;;6.40;1.80;;;;;;;15.75;57.70;101521.19;5087809;28;20121;-89
2022/05/29 08:21:50;;;;;;;8.43;2.05;;;;;;;15.64;58.68;101523.53;5068149;28;20494;-89
2022/05/29 08:32:27;;;;;;;5.03;2.17;;;;;;;15.48;56.62;101510.09;5084995;28;20501;-89
2022/05/29 08:34:52;;;;;;;6.53;2.47;;;;;;;15.16;58.15;101510.81;5066261;28;20028;-89
2022/05/29 08:37:19;;;;;;;5.82;2.10;;;;;;;14.90;58.06;101504.94;5078831;28;20028;-88
2022/05/29 08:39:44;;;;;;;4.07;2.25;;;;;;;14.78;60.01;101508.16;5073693;28;20024;-88
2022/05/29 08:42:14;;;;;;;8.48;2.03;;;;;;;14.68;59.50;101502.41;5060060;28;20070;-89
2022/05/29 08:44:46;;;;;;;7.32;2.20;;;;;;;14.72;60.76;101506.66;5061142;28;20143;-90
2022/05/29 08:47:13;;;;;;;5.50;2.33;;;;;;;14.71;60.14;101504.94;5063431;28;20868;-89
2022/05/29 08:49:43;;;;;;;6.43;2.20;;;;;;;14.73;58.77;101502.19;5067634;28;20518;-90
2022/05/29 08:52:26;;;;;;;6.75;2.40;;;;;;;14.92;58.86;101502.19;5074573;28;20077;-88
2022/05/29 08:54:52;;;;;;;8.15;2.42;;;;;;;15.10;58.67;101500.44;5076232;28;20023;-88
2022/05/29 08:57:54;;;;;;;8.25;2.05;;;;;;;15.44;58.58;101497.88;5062128;28;20398;-88
2022/05/29 09:00:39;;;;;;;;;;;;;;;15.78;58.42;101507.72;5059215;28;20419;-90
2022/05/29 09:03:25;;;;;;;5.90;1.90;;;;;;;15.87;56.70;101486.84;5063298;28;19920;-89
2022/05/29 09:06:21;;;;;;;5.57;1.83;;;;;;;16.18;55.38;101496.75;5062384;28;20384;-90
2022/05/29 09:08:57;;;;;;;3.10;2.17;;;;;;;16.68;55.68;101495.81;5079763;28;20115;-89
2022/05/29 09:11:42;;;;;;;7.60;2.05;;;;;;;17.49;52.37;101483.22;5062530;28;20042;-88
2022/05/29 09:14:23;;;;;;;7.70;2.25;;;;;;;18.17;51.71;101480.91;5060237;28;20036;-89
2022/05/29 09:16:58;;;;;;;4.50;1.65;;;;;;;18.66;47.87;101468.94;5063115;28;20057;-88
2022/05/29 09:19:41;;;;;;;4.00;2.13;;;;;;;18.63;49.58;101464.63;5079615;28;20043;-88
2022/05/29 09:22:18;;;;;;;7.38;1.83;;;;;;;18.52;49.31;101475.19;5081742;28;20554;-88
2022/05/29 09:25:08;;;;;;;3.90;1.70;;;;;;;18.09;50.82;101477.81;5073506;28;20020;-88
2022/05/29 09:27:36;;;;;;;4.25;1.48;;;;;;;17.64;51.15;101474.28;5080687;28;20482;-88
2022/05/29 09:30:03;;;;;;;4.40;1.48;;;;;;;17.12;51.44;101474.69;5066795;28;20028;-88
2022/05/29 09:32:31;;;;;;;4.90;1.50;;;;;;;16.64;52.15;101463.09;5083293;28;20470;-88
2022/05/29 09:35:01;;;;;;;4.05;1.40;;;;;;;16.56;53.85;101470.69;5063465;28;20032;-88
2022/05/29 09:37:47;;;;;;;4.43;1.48;;;;;;;16.44;53.75;101466.00;5084729;28;20069;-88
2022/05/29 09:40:21;;;;;;;3.83;1.85;;;;;;;16.43;53.49;101459.81;5068513;28;20032;-87
2022/05/29 09:42:48;;;;;;;6.28;1.92;;;;;;;16.92;55.09;101456.22;5084915;28;20474;-87
2022/05/29 09:45:19;;;;;;;4.95;1.83;;;;;;;17.56;52.13;101460.50;5063671;28;20035;-86
2022/05/29 09:50:46;;;;;;;6.43;2.13;;;;;;;18.76;49.79;101454.88;5080304;28;20073;-87
2022/05/29 09:53:15;;;;;;;5.38;1.80;;;;;;;18.71;46.60;101448.09;5067557;28;20039;-89
2022/05/29 09:55:49;;;;;;;6.43;1.85;;;;;;;18.82;48.32;101445.59;5068054;28;20494;-88
2022/05/29 09:58:26;;;;;;;5.47;2.38;;;;;;;19.04;49.13;101445.03;5088236;28;20450;-88
2022/05/29 10:00:52;;;;;;;4.13;1.90;;;;;;;18.85;47.05;101445.38;5073496;28;20103;-89
2022/05/29 10:03:49;;;;;;;4.90;1.70;;;;;;;18.77;48.59;101436.97;5085097;28;20039;-88
2022/05/29 10:06:35;;;;;;;4.35;2.05;;;;;;;18.52;48.56;101435.00;5084018;28;20020;-89
2022/05/29 10:09:10;;;;;;;4.55;2.20;;;;;;;18.43;48.12;101440.94;5085016;28;20809;-88
2022/05/29 10:11:37;;;;;;;4.65;1.90;;;;;;;18.27;49.88;101431.19;5087416;28;20046;-88
2022/05/29 10:14:21;;;;;;;6.75;1.90;;;;;;;18.51;50.24;101436.81;5071690;28;20598;-88
2022/05/29 10:16:50;;;;;;;5.25;1.90;;;;;;;18.56;49.75;101439.22;5078136;28;20020;-88
2022/05/29 10:19:41;;;;;;;5.53;2.17;;;;;;;18.46;50.28;101440.72;5071311;28;20024;-88
2022/05/29 10:22:27;;;;;;;1.95;0.70;;;;;;;17.98;49.35;101442.84;5080305;28;20479;-88
2022/05/29 10:24:54;;;;;;;2.05;0.80;;;;;;;17.36;48.97;101434.97;5083375;28;20111;-88
2022/05/29 10:27:27;;;;;;;2.58;0.50;;;;;;;17.22;48.25;101426.91;5067286;28;20054;-87
2022/05/29 10:29:56;;;;;;;2.17;0.52;;;;;;;17.08;47.44;101439.25;5086878;28;20028;-87
2022/05/29 10:32:26;;;;;;;0.93;0.40;;;;;;;17.09;50.06;101438.28;5084763;28;20490;-88
2022/05/29 10:35:05;;;;;;;1.70;0.50;;;;;;;17.41;49.18;101434.69;5068837;28;20532;-87
2022/05/29 10:37:43;;;;;;;2.15;0.60;;;;;;;17.71;46.82;101432.84;5069694;28;20124;-87
2022/05/29 10:40:14;;;;;;;1.00;0.50;;;;;;;17.70;49.02;101440.97;5084793;28;20063;-87
2022/05/29 10:42:44;;;;;;;1.70;0.70;;;;;;;17.69;47.60;101441.94;5067536;28;20332;-87
2022/05/29 10:45:17;;;;;;;2.40;0.50;;;;;;;17.74;47.36;101442.53;5066103;28;20035;-87
2022/05/29 10:48:02;;;;;;;3.00;0.70;;;;;;;17.87;49.63;101448.00;5084030;28;20089;-88
2022/05/29 10:50:59;;;;;;;2.83;0.60;;;;;;;18.00;47.47;101440.94;5072858;28;20047;-88
2022/05/29 10:53:47;;;;;;;3.80;0.80;;;;;;;17.97;47.62;101454.53;5070518;28;20051;-87
2022/05/29 10:56:28;;;;;;;2.40;0.82;;;;;;;17.80;47.70;101452.84;5087386;28;20024;-87
2022/05/29 10:59:09;;;;;;;1.15;0.60;;;;;;;17.79;49.72;101452.00;5086108;28;20040;-87
2022/05/29 11:05:30;;;;;;;0.95;0.70;;;;;;;19.14;47.91;101448.81;5038389;28;20442;-87
2022/05/29 11:08:19;;;;;;;1.27;0.60;;;;;;;19.31;46.24;101453.94;5067276;28;20036;-88
2022/05/29 11:11:11;;;;;;;2.25;0.60;;;;;;;19.40;45.81;101443.53;5063552;28;20020;-87
2022/05/29 11:14:07;;;;;;;1.33;0.70;;;;;;;19.72;46.70;101446.72;5074019;28;20031;-88
2022/05/29 11:16:56;;;;;;;2.20;0.68;;;;;;;19.83;45.28;101438.81;5065832;28;20509;-87
2022/05/29 11:19:31;;;;;;;3.28;0.80;;;;;;;19.50;45.78;101441.97;5088475;28;20646;-87
2022/05/29 11:22:14;;;;;;;2.42;1.10;;;;;;;19.14;47.90;101450.66;5068882;28;20032;-87
2022/05/29 11:25:16;;;;;;;4.82;1.20;;;;;;;18.86;51.63;101439.91;5089395;28;20474;-87
2022/05/29 11:27:51;;;;;;;1.40;0.63;;;;;;;18.65;50.05;101441.25;5090117;28;20023;-87
2022/05/29 11:30:55;;;;;;;1.40;0.52;;;;;;;18.48;49.83;101431.66;5081745;28;20028;-87
2022/05/29 11:33:51;;;;;;;2.35;0.70;;;;;;;18.26;51.72;101434.81;5029264;28;20058;-86
2022/05/29 11:36:16;;;;;;;2.60;0.70;;;;;;;18.13;50.52;101435.69;5069268;28;20051;-88
2022/05/29 11:38:55;;;;;;;1.63;0.80;;;;;;;18.06;49.65;101425.38;5081096;28;20078;-87
2022/05/29 11:41:32;;;;;;;2.33;0.88;;;;;;;18.23;53.30;101436.81;5068188;28;20812;-87
2022/05/29 11:44:07;;;;;;;2.05;1.02;;;;;;;18.55;51.53;101429.44;5084510;28;20407;-87
2022/05/29 11:52:28;;;;;;;3.40;1.00;;;;;;;18.31;48.86;101439.91;5088536;28;20058;-87
2022/05/29 11:55:04;;;;;;;2.22;0.90;;;;;;;17.78;51.31;101441.41;5087078;28;20032;-87
2022/05/29 11:57:43;;;;;;;2.47;0.90;;;;;;;16.94;54.96;101452.53;5061533;28;20032;-87
2022/05/29 12:00:10;;;;;;;3.10;1.05;;;;;;;16.14;56.85;101444.53;5061975;28;20052;-87
2022/05/29 12:02:49;;;;;;;2.33;0.90;;;;;;;15.75;57.72;101448.34;5064161;28;20047;-86
2022/05/29 12:05:32;;;;;;;2.60;0.60;;;;;;;15.59;58.74;101440.25;5063172;28;20025;-86
2022/05/29 12:08:17;;;;;;;4.85;0.60;;;;;;;15.72;58.69;101436.06;5069491;28;20055;-87
2022/05/29 12:10:53;;;;;;;0.60;0.60;;;;;;;15.84;58.61;101429.19;5067634;28;20076;-87
2022/05/29 12:13:23;;;;;;;1.90;0.50;;;;;;;16.02;58.12;101433.56;5073607;28;20028;-87
2022/05/29 12:15:57;;;;;;;0.40;0.40;;;;;;;16.17;58.30;101433.69;5063934;28;20498;-86
2022/05/29 12:18:31;;;;;;;1.20;0.52;;;;;;;16.24;60.12;101430.59;5089000;28;20501;-86
2022/05/29 12:21:01;;;;;;;1.05;0.40;;;;;;;16.29;59.13;101417.00;5063352;28;20024;-86
2022/05/29 12:23:26;;;;;;;1.45;0.40;;;;;;;16.25;59.09;101418.97;5081457;28;20047;-87
2022/05/29 12:26:00;;;;;;;2.33;0.50;;;;;;;16.30;58.58;101416.91;5066205;28;20028;-87
2022/05/29 12:28:25;;;;;;;0.98;0.30;;;;;;;16.31;59.96;101417.78;5081965;28;21324;-87